Time;durP1;ratioP1;P1;durP2;ratioP2;P2;SDS_P1;SDS_P2;PMS_P1;PMS_P2;Temp;Humidity;BMP_temperature;BMP_pressure;BME280_temperature;BME280_humidity;BME280_pressure;Samples;Min_cycle;Max_cycle;Signal;HPM_P1;HPM_P2
2021/08/04 04:59:55;;;;;;;;;;;;;;;27.65;45.09;100391.30;1857882;77;20194;-65
2021/08/04 05:02:22;;;;;;;;;;;;;;;27.79;43.74;100397.14;1827516;78;20089;-63
2021/08/04 05:04:49;;;;;;;;;;;;;;;27.99;43.46;100400.02;1838880;78;20958;-64
2021/08/04 05:07:17;;;;;;;;;;;;;;;28.24;42.29;100403.20;1838702;78;20105;-66
2021/08/04 05:09:45;;;;;;;;;;;;;;;28.50;41.02;100400.73;1830634;78;20093;-66
2021/08/04 05:12:12;;;;;;;;;;;;;;;28.69;38.79;100405.12;1832520;78;20093;-66
2021/08/04 05:14:40;;;;;;;;;;;;;;;28.72;37.25;100403.39;1829872;78;20093;-67
2021/08/04 05:17:10;;;;;;;;;;;;;;;28.72;36.93;100398.03;1823255;78;21106;-65
2021/08/04 05:19:59;;;;;;;;;;;;;;;28.75;36.33;100399.81;1810318;77;20140;-65
2021/08/04 05:22:21;;;;;;;;;;;;;;;28.72;35.96;100404.22;1795792;78;20400;-65
2021/08/04 05:25:07;;;;;;;;;;;;;;;28.74;36.26;100406.70;1805094;78;20109;-66
2021/08/04 05:27:40;;;;;;;;;;;;;;;28.69;36.18;100409.14;1760980;79;20083;-65
2021/08/04 05:30:15;;;;;;;;;;;;;;;28.63;36.98;100407.23;1799738;78;21121;-65
2021/08/04 05:32:43;;;;;;;;;;;;;;;28.79;36.72;100406.95;1828860;78;20168;-67
2021/08/04 05:35:16;;;;;;;;;;;;;;;29.00;37.08;100413.61;1798225;78;20128;-66
2021/08/04 05:37:50;;;;;;;;;;;;;;;29.24;35.67;100406.09;1828236;78;20156;-65
2021/08/04 05:40:24;;;;;;;;;;;;;;;29.38;35.97;100407.31;1797428;78;20188;-68
2021/08/04 05:42:57;;;;;;;;;;;;;;;29.50;36.08;100411.64;1760372;78;22468;-70
2021/08/04 05:45:28;;;;;;;;;;;;;;;29.61;34.52;100404.34;1824064;78;20089;-64
2021/08/04 05:48:00;;;;;;;;;;;;;;;29.59;34.15;100397.00;1820996;77;20183;-65
2021/08/04 05:50:42;;;;;;;;;;;;;;;29.57;33.73;100397.74;1822582;78;20180;-68
2021/08/04 05:53:18;;;;;;;;;;;;;;;29.56;34.49;100401.45;1824385;78;20456;-68
2021/08/04 05:55:57;;;;;;;;;;;;;;;29.67;34.40;100396.00;1832671;77;21164;-65
2021/08/04 05:58:27;;;;;;;;;;;;;;;29.85;34.33;100395.76;1815305;78;20109;-66
2021/08/04 06:01:02;;;;;;;;;;;;;;;30.09;34.27;100402.95;1805659;78;20418;-64
2021/08/04 06:03:36;;;;;;;;;;;;;;;30.15;34.28;100398.94;1763844;79;20212;-63
2021/08/04 06:06:20;;;;;;;;;;;;;;;30.11;34.22;100395.00;1718326;82;20127;-63
2021/08/04 06:08:58;;;;;;;;;;;;;;;29.92;34.92;100399.80;1711330;81;20491;-65
2021/08/04 06:11:25;;;;;;;;;;;;;;;29.53;35.59;100394.62;1723604;83;20088;-67
2021/08/04 06:13:54;;;;;;;;;;;;;;;29.24;36.15;100403.41;1688389;84;20114;-64
2021/08/04 06:16:29;;;;;;;;;;;;;;;28.98;36.55;100400.08;1712249;83;20172;-66
2021/08/04 06:18:56;;;;;;;;;;;;;;;28.71;37.34;100403.91;1714904;81;20153;-70
2021/08/04 06:21:26;;;;;;;;;;;;;;;28.57;37.76;100405.33;1758661;81;21138;-68
2021/08/04 06:23:52;;;;;;;;;;;;;;;28.43;37.68;100402.52;1741980;81;20082;-70
2021/08/04 06:26:19;;;;;;;;;;;;;;;28.27;37.49;100406.00;1740702;81;20096;-67
2021/08/04 06:28:45;;;;;;;;;;;;;;;28.19;36.90;100400.23;1758627;81;20110;-63
2021/08/04 06:31:12;;;;;;;;;;;;;;;28.03;37.26;100397.79;1758565;81;20107;-69
2021/08/04 06:33:39;;;;;;;;;;;;;;;28.18;37.33;100398.06;1705995;83;21519;-72
2021/08/04 06:36:07;;;;;;;;;;;;;;;28.44;36.61;100400.67;1727301;79;20095;-65
2021/08/04 06:38:35;;;;;;;;;;;;;;;28.63;36.58;100402.70;1802774;79;20118;-66
2021/08/04 06:41:02;;;;;;;;;;;;;;;28.86;36.39;100402.47;1810397;79;20098;-65
2021/08/04 06:43:28;;;;;;;;;;;;;;;29.09;35.53;100397.69;1821359;79;20393;-65
2021/08/04 06:45:57;;;;;;;;;;;;;;;29.28;34.74;100395.29;1820557;79;20121;-65
2021/08/04 06:48:23;;;;;;;;;;;;;;;29.52;34.28;100394.83;1824633;77;20144;-64
2021/08/04 06:50:50;;;;;;;;;;;;;;;29.72;33.70;100397.05;1827776;78;20105;-63
2021/08/04 06:53:17;;;;;;;;;;;;;;;29.97;32.83;100393.31;1828513;78;20141;-70
2021/08/04 06:55:44;;;;;;;;;;;;;;;30.19;31.96;100392.13;1828918;78;20109;-66
2021/08/04 06:58:11;;;;;;;;;;;;;;;30.35;31.43;100394.94;1828265;77;21085;-67
2021/08/04 07:00:39;;;;;;;;;;;;;;;30.57;31.00;100400.13;1804175;78;20713;-63
2021/08/04 07:03:07;;;;;;;;;;;;;;;30.84;30.41;100397.70;1805144;78;20135;-69
2021/08/04 07:05:35;;;;;;;;;;;;;;;31.23;28.61;100402.20;1797468;78;20112;-70
2021/08/04 07:08:03;;;;;;;;;;;;;;;31.44;28.35;100407.31;1809340;79;20387;-67
2021/08/04 07:10:31;;;;;;;;;;;;;;;31.47;28.07;100411.44;1809671;79;22183;-67
2021/08/04 07:12:58;;;;;;;;;;;;;;;31.38;28.80;100413.54;1790736;79;20414;-67
2021/08/04 07:15:24;;;;;;;;;;;;;;;31.29;28.46;100412.63;1790185;80;20125;-66
2021/08/04 07:17:52;;;;;;;;;;;;;;;31.00;27.84;100410.72;1787920;79;20155;-64
2021/08/04 07:20:20;;;;;;;;;;;;;;;30.48;28.06;100418.28;1767832;79;20502;-65
2021/08/04 07:22:48;;;;;;;;;;;;;;;29.85;28.81;100415.06;1797887;78;21151;-66
2021/08/04 07:25:15;;;;;;;;;;;;;;;29.35;30.34;100418.45;1776050;79;20116;-65
2021/08/04 07:27:42;;;;;;;;;;;;;;;29.19;30.88;100420.13;1726028;81;20123;-68
2021/08/04 07:30:11;;;;;;;;;;;;;;;29.18;30.71;100415.80;1727656;82;20461;-69
2021/08/04 07:32:38;;;;;;;;;;;;;;;29.15;31.58;100418.35;1740640;81;20149;-69
2021/08/04 07:35:06;;;;;;;;;;;;;;;29.15;31.99;100414.84;1751754;81;21335;-68
2021/08/04 07:37:33;;;;;;;;;;;;;;;29.08;32.40;100413.97;1734294;82;20165;-68
2021/08/04 07:40:00;;;;;;;;;;;;;;;28.97;32.86;100415.34;1731917;82;20097;-65
2021/08/04 07:42:27;;;;;;;;;;;;;;;28.85;32.80;100409.69;1745408;81;20118;-65
2021/08/04 07:44:55;;;;;;;;;;;;;;;28.68;33.36;100419.54;1735372;81;20082;-64
2021/08/04 07:47:22;;;;;;;;;;;;;;;28.63;33.50;100415.27;1765464;81;21105;-65
2021/08/04 07:49:49;;;;;;;;;;;;;;;28.69;33.47;100413.16;1763077;81;20098;-66
2021/08/04 07:52:17;;;;;;;;;;;;;;;28.80;33.17;100416.62;1734651;82;20402;-67
2021/08/04 07:54:44;;;;;;;;;;;;;;;28.80;32.85;100416.62;1734556;82;20129;-66
2021/08/04 07:57:11;;;;;;;;;;;;;;;28.85;32.81;100407.00;1734859;82;20089;-63
2021/08/04 07:59:38;;;;;;;;;;;;;;;29.09;31.82;100408.41;1749027;81;21163;-69
2021/08/04 08:02:05;;;;;;;;;;;;;;;29.59;30.63;100410.41;1760222;80;20401;-65
2021/08/04 08:04:32;;;;;;;;;;;;;;;30.10;29.48;100409.46;1757587;81;20098;-65
2021/08/04 08:07:01;;;;;;;;;;;;;;;30.52;29.54;100409.59;1757795;81;20091;-65
2021/08/04 08:09:28;;;;;;;;;;;;;;;30.88;28.93;100407.01;1757545;81;20169;-65
2021/08/04 08:11:57;;;;;;;;;;;;;;;31.13;28.66;100404.52;1759595;80;21865;-68
2021/08/04 08:14:23;;;;;;;;;;;;;;;31.32;28.08;100410.87;1757722;81;20177;-65
2021/08/04 08:16:50;;;;;;;;;;;;;;;31.53;27.15;100402.52;1757529;81;20074;-66
2021/08/04 08:19:17;;;;;;;;;;;;;;;31.65;26.88;100391.36;1769207;80;20196;-65
2021/08/04 08:21:45;;;;;;;;;;;;;;;31.75;27.42;100394.97;1782700;80;20115;-64
2021/08/04 08:24:12;;;;;;;;;;;;;;;31.82;27.52;100399.28;1798388;80;21138;-63
2021/08/04 08:26:39;;;;;;;;;;;;;;;31.95;27.26;100412.38;1756028;81;20224;-62
2021/08/04 08:29:06;;;;;;;;;;;;;;;32.00;26.43;100405.27;1766968;81;20078;-65
2021/08/04 08:31:34;;;;;;;;;;;;;;;31.91;26.51;100406.59;1761260;81;20344;-64
2021/08/04 08:34:02;;;;;;;;;;;;;;;31.96;25.83;100409.98;1785501;80;20089;-66
2021/08/04 08:36:29;;;;;;;;;;;;;;;32.04;24.99;100400.27;1729968;83;21956;-65
2021/08/04 08:38:57;;;;;;;;;;;;;;;32.10;24.95;100395.37;1788623;80;20148;-65
2021/08/04 08:41:24;;;;;;;;;;;;;;;32.05;24.71;100392.50;1740389;81;20083;-64
2021/08/04 08:43:51;;;;;;;;;;;;;;;31.82;25.69;100389.86;1798587;80;20092;-64
2021/08/04 08:46:18;;;;;;;;;;;;;;;31.63;25.59;100383.19;1792587;80;20080;-64
2021/08/04 08:48:48;;;;;;;;;;;;;;;31.50;26.08;100382.75;1771704;80;21156;-66
2021/08/04 08:51:17;;;;;;;;;;;;;;;31.37;26.40;100386.31;1775943;80;20147;-67
2021/08/04 08:53:44;;;;;;;;;;;;;;;31.28;26.04;100390.28;1774588;80;20431;-65
2021/08/04 08:56:17;;;;;;;;;;;;;;;31.13;26.59;100388.38;1773907;80;20187;-67
2021/08/04 08:58:44;;;;;;;;;;;;;;;31.02;27.70;100391.16;1749860;80;20473;-70
2021/08/04 09:01:10;;;;;;;;;;;;;;;30.97;27.35;100392.83;1780914;80;21128;-66
2021/08/04 09:03:37;;;;;;;;;;;;;;;30.95;26.44;100393.55;1764532;80;20132;-69
2021/08/04 09:06:05;;;;;;;;;;;;;;;30.83;26.97;100390.67;1726948;82;20147;-66
2021/08/04 09:08:33;;;;;;;;;;;;;;;30.78;27.23;100390.50;1727060;82;20121;-71
2021/08/04 09:11:16;;;;;;;;;;;;;;;30.73;27.16;100391.64;1746965;81;20107;-68
2021/08/04 09:13:45;;;;;;;;;;;;;;;30.59;26.78;100387.30;1751303;82;21910;-68
2021/08/04 09:16:15;;;;;;;;;;;;;;;30.18;27.13;100388.30;1750415;81;20083;-67
2021/08/04 09:18:43;;;;;;;;;;;;;;;29.91;28.27;100382.03;1731581;81;20222;-65
2021/08/04 09:21:11;;;;;;;;;;;;;;;29.74;28.84;100391.48;1720516;83;20695;-64
2021/08/04 09:23:48;;;;;;;;;;;;;;;29.64;29.46;100391.03;1720394;83;20204;-63
2021/08/04 09:26:18;;;;;;;;;;;;;;;29.65;28.65;100388.14;1719914;83;21194;-64
2021/08/04 09:29:01;;;;;;;;;;;;;;;29.66;27.55;100384.95;1721271;83;20640;-63
2021/08/04 09:31:51;;;;;;;;;;;;;;;29.46;28.03;100383.55;1724846;82;20498;-66
2021/08/04 09:34:38;;;;;;;;;;;;;;;29.23;29.05;100378.45;1746899;82;21393;-64
2021/08/04 09:37:12;;;;;;;;;;;;;;;29.08;29.18;100370.55;1662735;86;21189;-67
2021/08/04 09:39:40;;;;;;;;;;;;;;;28.92;30.05;100373.55;1727911;82;21099;-66
2021/08/04 09:42:07;;;;;;;;;;;;;;;28.88;30.18;100368.26;1736549;82;20122;-66
2021/08/04 09:44:34;;;;;;;;;;;;;;;28.93;29.96;100371.69;1700269;82;20449;-67
2021/08/04 09:47:12;;;;;;;;;;;;;;;29.04;29.83;100364.44;1740778;82;20422;-67
2021/08/04 09:49:41;;;;;;;;;;;;;;;29.18;29.46;100364.32;1740358;82;20124;-65
2021/08/04 09:52:09;;;;;;;;;;;;;;;29.27;29.58;100360.11;1740457;81;21095;-71
2021/08/04 09:54:42;;;;;;;;;;;;;;;29.29;29.34;100355.37;1715904;82;20132;-69
2021/08/04 09:57:10;;;;;;;;;;;;;;;29.27;29.91;100354.23;1728563;83;20122;-68
2021/08/04 09:59:37;;;;;;;;;;;;;;;29.20;30.43;100359.56;1774699;80;20101;-71
2021/08/04 10:02:05;;;;;;;;;;;;;;;29.17;30.10;100355.96;1726119;83;20131;-67
2021/08/04 10:04:32;;;;;;;;;;;;;;;29.17;29.87;100357.30;1748987;82;21092;-70
2021/08/04 10:07:06;;;;;;;;;;;;;;;29.17;29.26;100356.47;1743865;82;20079;-73
2021/08/04 10:09:35;;;;;;;;;;;;;;;29.13;28.23;100353.36;1725847;83;20202;-65
2021/08/04 10:12:02;;;;;;;;;;;;;;;28.97;28.21;100343.46;1696863;84;20091;-65
2021/08/04 10:14:29;;;;;;;;;;;;;;;28.74;29.36;100347.23;1731861;83;20165;-65
2021/08/04 10:16:56;;;;;;;;;;;;;;;28.57;29.40;100343.19;1731508;83;21951;-65
2021/08/04 10:19:25;;;;;;;;;;;;;;;28.45;29.93;100339.38;1731789;83;20599;-65
2021/08/04 10:21:52;;;;;;;;;;;;;;;28.37;29.91;100336.36;1730997;83;20085;-66
2021/08/04 10:24:19;;;;;;;;;;;;;;;28.33;29.84;100336.94;1731615;83;20093;-65
2021/08/04 10:26:47;;;;;;;;;;;;;;;28.25;30.28;100341.91;1731729;83;20152;-65
2021/08/04 10:29:15;;;;;;;;;;;;;;;28.20;30.77;100339.78;1731523;83;21143;-65
2021/08/04 10:31:42;;;;;;;;;;;;;;;28.09;30.88;100334.94;1731302;83;20097;-65
2021/08/04 10:34:09;;;;;;;;;;;;;;;27.95;31.01;100334.52;1731617;83;20432;-65
2021/08/04 10:36:38;;;;;;;;;;;;;;;27.79;31.37;100339.61;1731548;83;20117;-65
2021/08/04 10:39:11;;;;;;;;;;;;;;;27.71;31.45;100341.56;1731525;83;20148;-65
2021/08/04 10:41:41;;;;;;;;;;;;;;;27.65;31.31;100340.47;1731841;83;21144;-65
2021/08/04 10:44:22;;;;;;;;;;;;;;;27.58;31.06;100332.88;1731314;83;20120;-65
2021/08/04 10:46:50;;;;;;;;;;;;;;;27.56;30.91;100327.72;1730673;83;20081;-65
2021/08/04 10:49:19;;;;;;;;;;;;;;;27.55;30.61;100326.56;1732013;83;20265;-65
2021/08/04 10:51:59;;;;;;;;;;;;;;;27.54;30.65;100327.58;1731363;83;20116;-66
2021/08/04 10:54:25;;;;;;;;;;;;;;;27.52;30.74;100326.94;1731121;83;21149;-66
2021/08/04 10:56:56;;;;;;;;;;;;;;;27.49;30.53;100329.48;1731519;83;20073;-65
2021/08/04 10:59:25;;;;;;;;;;;;;;;27.42;30.78;100333.09;1732237;81;20168;-66
2021/08/04 11:02:03;;;;;;;;;;;;;;;27.39;30.59;100333.47;1757355;80;20079;-65
2021/08/04 11:04:40;;;;;;;;;;;;;;;27.39;30.76;100334.80;1746456;80;20508;-65
2021/08/04 11:07:17;;;;;;;;;;;;;;;27.37;30.62;100328.30;1785844;80;21186;-65
2021/08/04 11:09:48;;;;;;;;;;;;;;;27.36;30.37;100331.99;1773267;80;20104;-66
2021/08/04 11:12:19;;;;;;;;;;;;;;;27.37;31.00;100332.31;1750592;81;20214;-64
2021/08/04 11:14:56;;;;;;;;;;;;;;;27.40;30.74;100326.59;1742382;81;20139;-66
2021/08/04 11:17:31;;;;;;;;;;;;;;;27.36;29.88;100325.81;1741053;82;20138;-69
2021/08/04 11:20:06;;;;;;;;;;;;;;;27.24;30.17;100324.95;1759886;81;21092;-65
2021/08/04 11:22:43;;;;;;;;;;;;;;;27.14;30.93;100325.77;1778391;80;20093;-66
2021/08/04 11:25:24;;;;;;;;;;;;;;;27.11;31.46;100327.98;1776924;80;20084;-66
2021/08/04 11:27:55;;;;;;;;;;;;;;;27.06;30.69;100327.71;1769556;80;20067;-69
2021/08/04 11:30:38;;;;;;;;;;;;;;;26.97;31.45;100328.31;1771024;80;20170;-67
2021/08/04 11:33:24;;;;;;;;;;;;;;;26.95;31.87;100331.64;1749935;80;21089;-65
2021/08/04 11:36:06;;;;;;;;;;;;;;;26.96;31.72;100328.49;1758668;80;20128;-68
2021/08/04 11:39:01;;;;;;;;;;;;;;;26.96;32.32;100331.17;1772321;80;20456;-67
2021/08/04 11:41:42;;;;;;;;;;;;;;;26.96;30.59;100325.82;1766273;81;20392;-68
2021/08/04 11:44:30;;;;;;;;;;;;;;;26.90;30.29;100323.34;1751158;80;20122;-65
2021/08/04 11:47:02;;;;;;;;;;;;;;;26.81;30.31;100321.27;1737331;82;20984;-65
2021/08/04 11:49:33;;;;;;;;;;;;;;;26.74;30.57;100325.72;1743800;80;20405;-71
2021/08/04 11:52:08;;;;;;;;;;;;;;;26.70;30.89;100322.25;1772572;81;20085;-67
2021/08/04 11:54:41;;;;;;;;;;;;;;;26.66;30.34;100321.79;1770363;81;20155;-66
2021/08/04 11:57:15;;;;;;;;;;;;;;;26.64;30.38;100321.14;1767884;81;20085;-67
2021/08/04 11:59:45;;;;;;;;;;;;;;;26.60;30.75;100319.84;1752167;80;21281;-68
2021/08/04 12:02:13;;;;;;;;;;;;;;;26.56;30.98;100319.38;1816801;79;20109;-65
2021/08/04 12:04:47;;;;;;;;;;;;;;;26.54;31.39;100321.40;1808774;79;20078;-68
2021/08/04 12:07:15;;;;;;;;;;;;;;;26.53;31.74;100310.90;1788703;79;20148;-64
2021/08/04 12:09:42;;;;;;;;;;;;;;;26.54;31.93;100308.05;1764201;80;20144;-67
2021/08/04 12:12:19;;;;;;;;;;;;;;;26.59;31.90;100302.16;1769871;79;21037;-66
2021/08/04 12:14:50;;;;;;;;;;;;;;;26.61;31.92;100296.63;1775617;80;20085;-67
2021/08/04 12:17:22;;;;;;;;;;;;;;;26.64;32.25;100293.09;1774069;80;20317;-66
2021/08/04 12:19:52;;;;;;;;;;;;;;;26.66;32.29;100291.07;1770307;80;20097;-68
2021/08/04 12:22:25;;;;;;;;;;;;;;;26.66;31.87;100287.56;1752158;82;20428;-68
2021/08/04 12:24:58;;;;;;;;;;;;;;;26.68;31.45;100287.70;1765827;80;21149;-67
2021/08/04 12:27:40;;;;;;;;;;;;;;;26.69;31.24;100291.21;1817469;79;20385;-66
2021/08/04 12:30:13;;;;;;;;;;;;;;;26.68;31.37;100284.20;1816862;79;20082;-66
2021/08/04 12:33:12;;;;;;;;;;;;;;;26.66;32.17;100284.90;1816508;79;20102;-68
2021/08/04 12:36:02;;;;;;;;;;;;;;;26.66;31.95;100286.23;1805213;79;20176;-63
2021/08/04 12:38:22;;;;;;;;;;;;;;;26.67;32.34;100280.70;1764609;80;21442;-65
2021/08/04 12:40:52;;;;;;;;;;;;;;;26.70;32.35;100278.17;1784985;79;20170;-65
2021/08/04 12:43:21;;;;;;;;;;;;;;;26.72;31.85;100283.66;1784585;80;20085;-66
2021/08/04 12:45:52;;;;;;;;;;;;;;;26.70;31.58;100272.33;1785161;80;20144;-67
2021/08/04 12:48:39;;;;;;;;;;;;;;;26.69;31.86;100269.33;1772656;79;20134;-71
2021/08/04 12:51:08;;;;;;;;;;;;;;;26.70;32.50;100273.66;1782508;80;21795;-71
2021/08/04 12:53:37;;;;;;;;;;;;;;;26.69;32.85;100263.98;1772983;80;20118;-65
2021/08/04 12:56:15;;;;;;;;;;;;;;;26.72;32.65;100266.29;1759599;80;20116;-68
2021/08/04 12:58:58;;;;;;;;;;;;;;;26.74;32.48;100260.26;1784737;80;20116;-65
2021/08/04 13:01:33;;;;;;;;;;;;;;;26.75;32.22;100261.92;1761152;79;20490;-70
2021/08/04 13:04:18;;;;;;;;;;;;;;;26.80;32.62;100264.00;1760127;80;21687;-72
2021/08/04 13:06:56;;;;;;;;;;;;;;;26.84;33.15;100263.45;1761007;80;20399;-70
2021/08/04 13:09:25;;;;;;;;;;;;;;;26.89;33.28;100262.89;1749330;81;20455;-66
2021/08/04 13:11:54;;;;;;;;;;;;;;;26.91;33.42;100262.20;1747485;82;20238;-65
2021/08/04 13:14:21;;;;;;;;;;;;;;;26.89;32.70;100260.22;1770258;79;20104;-73
2021/08/04 13:16:48;;;;;;;;;;;;;;;26.85;32.34;100258.94;1758339;81;21069;-65
2021/08/04 13:19:22;;;;;;;;;;;;;;;26.76;32.20;100251.55;1749250;81;20131;-64
2021/08/04 13:22:06;;;;;;;;;;;;;;;26.69;32.85;100247.13;1784391;80;20072;-68
2021/08/04 13:24:36;;;;;;;;;;;;;;;26.65;33.54;100256.52;1784235;80;20105;-69
2021/08/04 13:27:23;;;;;;;;;;;;;;;26.66;33.50;100252.84;1782716;80;20112;-66
2021/08/04 13:29:50;;;;;;;;;;;;;;;26.69;33.87;100250.63;1779179;80;20969;-64
2021/08/04 13:32:17;;;;;;;;;;;;;;;26.75;33.23;100247.73;1750782;81;21637;-68
2021/08/04 13:34:43;;;;;;;;;;;;;;;26.77;33.03;100247.04;1751134;81;20443;-67
2021/08/04 13:37:11;;;;;;;;;;;;;;;26.84;33.21;100246.08;1779614;80;20167;-67
2021/08/04 13:39:39;;;;;;;;;;;;;;;26.91;33.49;100238.16;1735370;80;20129;-67
2021/08/04 13:42:08;;;;;;;;;;;;;;;26.93;33.41;100235.30;1771729;81;21213;-66
2021/08/04 13:44:35;;;;;;;;;;;;;;;26.90;32.76;100235.98;1771767;80;20378;-65
2021/08/04 13:47:02;;;;;;;;;;;;;;;26.92;33.30;100238.47;1797424;79;20122;-66
2021/08/04 13:49:29;;;;;;;;;;;;;;;26.92;33.21;100239.81;1783921;80;20122;-66
2021/08/04 13:51:56;;;;;;;;;;;;;;;26.93;32.97;100239.30;1771619;80;20155;-65
2021/08/04 13:54:23;;;;;;;;;;;;;;;26.95;33.06;100231.93;1784754;80;21127;-67
2021/08/04 13:56:49;;;;;;;;;;;;;;;26.95;31.97;100227.92;1784867;80;20144;-66
2021/08/04 13:59:17;;;;;;;;;;;;;;;26.95;32.16;100230.59;1789098;80;20985;-67
2021/08/04 14:01:44;;;;;;;;;;;;;;;26.93;32.82;100222.77;1767356;80;20465;-66
2021/08/04 14:04:11;;;;;;;;;;;;;;;26.96;32.49;100230.44;1716547;82;20090;-67
2021/08/04 14:06:38;;;;;;;;;;;;;;;26.97;32.12;100220.58;1723154;82;22295;-67
2021/08/04 14:09:05;;;;;;;;;;;;;;;27.00;32.62;100219.70;1720665;82;20121;-64
2021/08/04 14:11:31;;;;;;;;;;;;;;;27.03;32.37;100213.98;1731010;82;20179;-64
2021/08/04 14:14:00;;;;;;;;;;;;;;;27.07;32.86;100213.92;1734419;82;20075;-65
